0A9

Elizabethton Municipal Airport

Elizabethton, Tennessee, USA
METAR K0A9 172055Z AUTO 31008KT 260V350 10SM CLR 18/04 A3023 RMK AO2
Observed Flight Rules
Oct-17 @ 20:55 UTC (25 minutes ago) Visual Flight Rules
Wind Visibility Clouds
310° at 8 knots 10 miles
  • Clear skies
Temperatures Readings
Current 18°C / 64°F
Dewpoint 4°C / 39°F
Humidity 40%
Altimeter 30.23" Hg
Pressure 1024 hPa
Elevation 486
METAR K0A9 172055Z AUTO 31008KT 260V350 10SM CLR 18/04 A3023 RMK AO2
Observed Flight Rules
Oct-17 @ 20:55 UTC
(25 minutes ago)
VFR
Wind Visibility
310° at 8 knots 10 miles
Clouds
  • Clear skies
Temperature Dewpoint
18°C / 64°F 4°C / 39°F
Humidity Altimeter Pressure
40% 30.23" Hg 1024 hPa